Terminal Aerodrome Forecast
Issued by NWS Cheyenne, WY

Home | Current Version | Previous Version | Text Only | Print | Product List | Glossary On
Versions: 1 2 3 4 5 6 7 8 9 10 11 12 13 14 15 16 17 18 19 20 21 22 23 24 25 26 27 28 29 30 31 32 33 34 35 36 37 38 39 40 41 42 43 44 45 46 47 48
000
FTUS45 KCYS 271303 AAA
TAFCYS
TAF AMD
KCYS 271303Z 2713/2812 16012KT 6SM BR BKN008 OVC020
      TEMPO 2713/2716 1SM -SN BR OVC004
     FM271900 19012KT P6SM BKN015 BKN025
     FM280300 21008KT 5SM BR SCT007 BKN015=

USA.gov is the U.S. government's official web portal to all federal, state and local government web resources and services.